createdAt,value
2022-08-23T00:01:24.271Z,25.80
2022-08-23T00:03:52.291Z,26.20
2022-08-23T00:06:20.165Z,26.40
2022-08-23T00:08:48.890Z,26.60
2022-08-23T00:11:27.529Z,26.80
2022-08-23T00:13:57.095Z,26.80
2022-08-23T00:16:25.217Z,26.90
2022-08-23T00:18:53.129Z,27.00
2022-08-23T00:21:21.088Z,27.00
2022-08-23T00:23:49.071Z,27.10
2022-08-23T00:26:17.887Z,27.20
2022-08-23T00:28:45.678Z,27.20
2022-08-23T00:31:15.971Z,27.20
2022-08-23T00:33:43.791Z,27.30
2022-08-23T00:36:11.811Z,27.20
2022-08-23T00:38:39.986Z,27.30
2022-08-23T00:41:08.076Z,27.30
2022-08-23T00:43:54.417Z,27.30
2022-08-23T00:46:50.837Z,27.30
2022-08-23T00:49:18.812Z,27.30
2022-08-23T00:51:53.058Z,27.30
2022-08-23T00:54:22.095Z,27.30
2022-08-23T00:56:49.905Z,27.30
2022-08-23T00:59:17.796Z,27.30
2022-08-23T01:01:48.019Z,27.30
2022-08-23T01:04:17.448Z,27.30
2022-08-23T01:06:47.937Z,27.30
2022-08-23T01:09:17.787Z,27.40
2022-08-23T01:11:47.742Z,27.40
2022-08-23T01:14:16.902Z,27.30
2022-08-23T01:16:47.172Z,27.30
2022-08-23T01:19:17.905Z,27.30
2022-08-23T01:21:48.403Z,27.30
2022-08-23T01:24:19.275Z,27.30
2022-08-23T01:27:05.778Z,27.40
2022-08-23T01:29:34.041Z,27.40
2022-08-23T01:32:02.038Z,27.30
2022-08-23T01:34:30.096Z,27.40
2022-08-23T01:37:05.012Z,27.40
2022-08-23T01:39:34.397Z,27.40
2022-08-23T01:42:02.257Z,27.40
2022-08-23T01:44:35.733Z,27.30
2022-08-23T01:47:03.653Z,27.30
2022-08-23T01:49:31.660Z,27.30
2022-08-23T01:52:00.234Z,27.30
2022-08-23T01:54:28.096Z,27.30
2022-08-23T01:56:57.667Z,27.30
2022-08-23T01:59:25.534Z,27.30
2022-08-23T02:01:53.938Z,27.30
2022-08-23T02:04:22.398Z,27.30
2022-08-23T02:06:50.399Z,27.30
2022-08-23T02:09:18.450Z,27.30
2022-08-23T02:11:46.637Z,27.30
2022-08-23T02:14:16.993Z,27.40
2022-08-23T02:17:02.690Z,27.30
2022-08-23T02:19:32.063Z,27.30
2022-08-23T02:22:00.119Z,27.30
2022-08-23T02:24:28.084Z,27.30
2022-08-23T02:26:57.407Z,27.20
2022-08-23T02:29:29.582Z,27.20
2022-08-23T02:31:57.999Z,27.20
2022-08-23T02:34:35.573Z,27.20
2022-08-23T02:37:03.561Z,27.20
2022-08-23T02:39:31.512Z,27.20
2022-08-23T02:42:00.381Z,27.20
2022-08-23T02:44:34.670Z,27.10
2022-08-23T02:47:02.663Z,27.10
2022-08-23T02:49:31.029Z,27.10
2022-08-23T02:51:58.882Z,27.10
2022-08-23T02:54:26.823Z,27.00
2022-08-23T02:56:54.842Z,27.00
2022-08-23T02:59:22.726Z,27.00
2022-08-23T03:01:52.228Z,27.00
2022-08-23T03:04:20.273Z,27.00
2022-08-23T03:06:48.352Z,27.00
2022-08-23T03:09:16.319Z,27.00
2022-08-23T03:11:46.054Z,27.00
2022-08-23T03:14:14.132Z,27.00
2022-08-23T03:16:42.380Z,27.00
2022-08-23T03:19:11.796Z,27.10
2022-08-23T03:21:39.865Z,27.10
2022-08-23T03:24:11.407Z,27.20
2022-08-23T03:26:39.378Z,27.10
2022-08-23T03:29:07.279Z,27.00
2022-08-23T03:31:35.153Z,27.00
2022-08-23T03:34:03.173Z,27.00
2022-08-23T03:36:32.512Z,26.90
2022-08-23T03:39:00.846Z,27.00
2022-08-23T03:41:28.839Z,26.90
2022-08-23T03:43:56.808Z,26.90
2022-08-23T03:46:24.789Z,26.90
2022-08-23T03:48:52.856Z,27.00
2022-08-23T03:51:20.950Z,27.00
2022-08-23T03:53:50.349Z,26.90
2022-08-23T03:56:24.925Z,27.00
2022-08-23T03:58:53.114Z,27.00
2022-08-23T04:01:24.139Z,27.00
2022-08-23T04:03:54.460Z,26.90
2022-08-23T04:06:22.392Z,26.80
2022-08-23T04:08:54.761Z,26.80
2022-08-23T04:11:22.818Z,26.70
2022-08-23T04:13:50.610Z,26.60
2022-08-23T04:16:19.029Z,26.60
2022-08-23T04:18:46.880Z,26.60
2022-08-23T04:21:17.671Z,26.60
2022-08-23T04:23:45.686Z,26.50
2022-08-23T04:26:14.791Z,26.50
2022-08-23T04:28:42.587Z,26.40
2022-08-23T04:31:10.432Z,26.40
2022-08-23T04:33:40.382Z,26.40
2022-08-23T04:36:08.631Z,26.40
2022-08-23T04:38:36.518Z,26.40
2022-08-23T04:41:21.919Z,26.40
2022-08-23T04:43:51.353Z,26.40
2022-08-23T04:46:19.276Z,26.40
2022-08-23T04:48:47.559Z,26.40
2022-08-23T04:51:15.607Z,26.40
2022-08-23T04:53:43.624Z,26.40
2022-08-23T04:56:11.547Z,26.40
2022-08-23T04:58:39.854Z,26.50
2022-08-23T05:01:10.721Z,26.40
2022-08-23T05:03:38.867Z,26.50
2022-08-23T05:06:07.284Z,26.50
2022-08-23T05:08:35.336Z,26.50
2022-08-23T05:11:03.360Z,26.50
2022-08-23T05:13:31.680Z,26.40
2022-08-23T05:16:02.752Z,26.50
2022-08-23T05:18:32.093Z,26.50
2022-08-23T05:21:00.050Z,26.50
2022-08-23T05:23:32.144Z,26.60
2022-08-23T05:26:00.880Z,26.60
2022-08-23T05:28:29.948Z,26.60
2022-08-23T05:31:00.312Z,26.50
2022-08-23T05:33:31.764Z,26.60
2022-08-23T05:36:00.150Z,26.60
2022-08-23T05:38:28.189Z,26.60
2022-08-23T05:40:57.428Z,26.70
2022-08-23T05:43:27.812Z,26.70
2022-08-23T05:46:01.626Z,26.80
2022-08-23T05:48:33.479Z,26.80
2022-08-23T05:51:09.940Z,26.70
2022-08-23T05:53:38.231Z,26.70
2022-08-23T05:56:13.665Z,26.70
2022-08-23T05:58:42.158Z,26.70
2022-08-23T06:01:10.280Z,26.80
2022-08-23T06:03:39.640Z,26.70
2022-08-23T06:06:07.995Z,26.80
2022-08-23T06:08:36.009Z,26.80
2022-08-23T06:11:04.317Z,26.80
2022-08-23T06:13:32.700Z,26.80
2022-08-23T06:16:00.707Z,27.00
2022-08-23T06:18:45.408Z,27.00
2022-08-23T06:21:14.366Z,27.00
2022-08-23T06:23:42.414Z,27.00
2022-08-23T06:26:14.125Z,27.10
2022-08-23T06:28:50.447Z,27.20
2022-08-23T06:31:39.730Z,27.30
2022-08-23T06:34:09.125Z,27.30
2022-08-23T06:36:37.447Z,27.40
2022-08-23T06:39:05.656Z,27.50
2022-08-23T06:41:33.422Z,27.60
2022-08-23T06:44:01.172Z,27.40
2022-08-23T06:46:30.090Z,27.30
2022-08-23T06:48:58.625Z,27.40
2022-08-23T06:51:29.594Z,27.50
2022-08-23T06:53:58.415Z,27.50
2022-08-23T06:56:30.884Z,27.60
2022-08-23T06:58:59.251Z,27.50
2022-08-23T07:01:45.179Z,27.40
2022-08-23T07:04:15.693Z,27.50
2022-08-23T07:06:45.139Z,27.60
2022-08-23T07:09:13.305Z,27.70
2022-08-23T07:11:41.435Z,27.80
2022-08-23T07:14:11.498Z,27.90
2022-08-23T07:16:40.514Z,27.80
2022-08-23T07:19:09.230Z,27.80
2022-08-23T07:21:37.295Z,27.60
2022-08-23T07:24:07.189Z,27.30
2022-08-23T07:26:36.108Z,27.30
2022-08-23T07:29:04.639Z,27.30
2022-08-23T07:31:33.240Z,27.10
2022-08-23T07:34:02.557Z,26.90
2022-08-23T07:36:31.348Z,27.00
2022-08-23T07:38:59.652Z,27.30
2022-08-23T07:41:32.785Z,27.50
2022-08-23T07:44:02.391Z,27.40
2022-08-23T07:46:30.953Z,27.40
2022-08-23T07:48:59.211Z,27.30
2022-08-23T07:51:27.599Z,27.60
2022-08-23T07:53:55.757Z,27.10
2022-08-23T07:56:23.647Z,27.40
2022-08-23T07:58:53.243Z,27.00
2022-08-23T08:01:22.886Z,26.90
2022-08-23T08:03:52.802Z,27.20
2022-08-23T08:06:21.696Z,27.60
2022-08-23T08:08:49.810Z,28.00
2022-08-23T08:11:18.930Z,28.40
2022-08-23T08:13:47.067Z,28.70
2022-08-23T08:16:23.849Z,28.40
2022-08-23T08:18:52.457Z,28.70
2022-08-23T08:21:20.533Z,29.00
2022-08-23T08:23:48.528Z,28.30
2022-08-23T08:26:16.581Z,28.60
2022-08-23T08:28:44.656Z,28.60
2022-08-23T08:31:13.302Z,28.70
2022-08-23T08:33:42.933Z,29.10
2022-08-23T08:36:11.102Z,29.00
2022-08-23T08:38:48.448Z,28.60
2022-08-23T08:41:20.707Z,28.70
2022-08-23T08:43:55.037Z,28.70
2022-08-23T08:46:32.885Z,28.60
2022-08-23T08:49:17.770Z,29.50
2022-08-23T08:51:54.313Z,29.80
2022-08-23T08:54:30.292Z,30.20
2022-08-23T08:57:02.521Z,30.60
2022-08-23T08:59:32.800Z,30.70
2022-08-23T09:02:01.293Z,30.80
2022-08-23T09:04:30.946Z,30.90
2022-08-23T09:07:02.834Z,31.10
2022-08-23T09:09:48.948Z,31.40
2022-08-23T09:12:21.289Z,31.60
2022-08-23T09:14:57.161Z,32.00
2022-08-23T09:17:31.875Z,32.10
2022-08-23T09:20:03.683Z,32.10
2022-08-23T09:22:35.588Z,32.20
2022-08-23T09:25:20.070Z,32.50
2022-08-23T09:27:48.226Z,32.80
2022-08-23T09:30:17.878Z,32.90
2022-08-23T09:33:03.381Z,32.90
2022-08-23T09:35:33.166Z,33.00
2022-08-23T09:38:16.663Z,33.10
2022-08-23T09:41:07.002Z,33.20
2022-08-23T09:43:45.069Z,33.40
2022-08-23T09:46:13.232Z,33.50
2022-08-23T09:48:45.224Z,33.50
2022-08-23T09:51:18.680Z,33.70
2022-08-23T09:53:50.450Z,33.80
2022-08-23T09:56:23.652Z,33.90
2022-08-23T09:58:56.252Z,34.10
2022-08-23T10:01:25.858Z,34.20
2022-08-23T10:04:11.059Z,34.20
2022-08-23T10:07:26.900Z,34.30
2022-08-23T10:09:56.544Z,34.30
2022-08-23T10:12:27.321Z,34.40
2022-08-23T10:14:56.161Z,34.40
2022-08-23T10:17:34.286Z,34.60
2022-08-23T10:20:05.727Z,34.70
2022-08-23T10:23:25.987Z,34.80
2022-08-23T10:29:41.541Z,34.90
2022-08-23T10:32:19.875Z,35.10
2022-08-23T10:35:08.425Z,35.20
2022-08-23T10:37:48.093Z,35.10
2022-08-23T10:40:57.230Z,35.10
2022-08-23T10:43:32.196Z,35.20
2022-08-23T10:46:14.625Z,35.50
2022-08-23T10:48:51.477Z,35.60
2022-08-23T10:51:31.648Z,35.60
2022-08-23T10:54:03.779Z,35.70
2022-08-23T10:56:31.838Z,35.60
2022-08-23T10:59:02.925Z,35.80
2022-08-23T11:01:33.108Z,35.90
2022-08-23T11:04:03.735Z,35.80
2022-08-23T11:06:44.658Z,35.90
2022-08-23T11:09:32.389Z,36.00
2022-08-23T11:12:23.682Z,35.90
2022-08-23T11:15:19.058Z,35.90
2022-08-23T11:18:18.910Z,35.90
2022-08-23T11:21:02.218Z,36.00
2022-08-23T11:23:51.077Z,35.80
2022-08-23T11:27:06.354Z,36.00
2022-08-23T11:29:36.590Z,36.10
2022-08-23T11:32:38.059Z,36.00
2022-08-23T11:35:11.393Z,36.10
2022-08-23T11:37:59.847Z,36.10
2022-08-23T11:40:40.720Z,36.10
2022-08-23T11:43:12.417Z,36.20
2022-08-23T11:45:44.739Z,36.20
2022-08-23T11:48:17.462Z,36.30
2022-08-23T11:51:17.198Z,36.30
2022-08-23T11:54:21.006Z,36.40
2022-08-23T11:57:08.901Z,36.30
2022-08-23T12:00:05.037Z,36.50
2022-08-23T12:02:42.100Z,36.50
2022-08-23T12:05:32.351Z,36.50
2022-08-23T12:08:30.199Z,36.50
2022-08-23T12:11:08.702Z,36.60
2022-08-23T12:13:49.240Z,36.60
2022-08-23T12:16:44.199Z,36.70
2022-08-23T12:19:22.391Z,36.80
2022-08-23T12:21:56.005Z,36.80
2022-08-23T12:24:32.678Z,36.80
2022-08-23T12:27:08.616Z,36.90
2022-08-23T12:29:47.872Z,36.90
2022-08-23T12:32:22.528Z,36.90
2022-08-23T12:35:04.689Z,36.90
2022-08-23T12:37:39.841Z,37.00
2022-08-23T12:40:13.163Z,37.10
2022-08-23T12:42:41.669Z,37.10
2022-08-23T12:45:14.067Z,37.10
2022-08-23T12:47:43.525Z,37.20
2022-08-23T12:50:22.434Z,37.10
2022-08-23T12:53:03.836Z,37.20
2022-08-23T12:55:36.026Z,37.20
2022-08-23T12:58:04.905Z,37.30
2022-08-23T13:00:34.411Z,37.20
2022-08-23T13:03:07.312Z,37.30
2022-08-23T13:05:43.826Z,37.30
2022-08-23T13:08:16.000Z,37.30
2022-08-23T13:10:44.624Z,37.40
2022-08-23T13:13:14.569Z,37.30
2022-08-23T13:16:03.544Z,37.30
2022-08-23T13:18:34.214Z,37.40
2022-08-23T13:21:21.206Z,37.40
2022-08-23T13:23:53.234Z,37.40
2022-08-23T13:26:47.212Z,37.40
2022-08-23T13:29:24.137Z,37.50
2022-08-23T13:32:02.655Z,37.50
2022-08-23T13:34:47.101Z,37.50
2022-08-23T13:37:28.352Z,37.60
2022-08-23T13:39:58.876Z,37.50
2022-08-23T13:42:36.895Z,37.50
2022-08-23T13:45:10.249Z,37.50
2022-08-23T13:47:47.070Z,37.50
2022-08-23T13:50:17.205Z,37.50
2022-08-23T13:53:11.558Z,37.50
2022-08-23T13:55:46.771Z,37.60
2022-08-23T13:58:37.283Z,37.60
2022-08-23T14:01:05.483Z,37.50
2022-08-23T14:03:33.578Z,37.50
2022-08-23T14:06:01.677Z,37.60
2022-08-23T14:08:29.838Z,37.60
2022-08-23T14:11:03.010Z,37.50
2022-08-23T14:13:31.117Z,37.50
2022-08-23T14:21:38.026Z,37.50
2022-08-23T14:24:06.942Z,37.50
2022-08-23T14:26:36.604Z,37.40
2022-08-23T14:29:04.842Z,37.40
2022-08-23T14:31:33.381Z,37.30
2022-08-23T14:34:02.275Z,37.30
2022-08-23T14:36:30.595Z,37.20
2022-08-23T14:39:11.564Z,37.10
2022-08-23T14:41:43.038Z,37.10
2022-08-23T14:44:13.913Z,37.10
2022-08-23T14:46:51.846Z,37.00
2022-08-23T14:50:08.010Z,37.00
2022-08-23T14:52:37.493Z,37.00
2022-08-23T14:55:11.845Z,37.00
2022-08-23T14:57:41.682Z,37.00
2022-08-23T15:00:41.542Z,37.00
2022-08-23T15:03:27.821Z,37.00
2022-08-23T15:05:59.420Z,37.00
2022-08-23T15:08:29.667Z,37.00
2022-08-23T15:13:55.310Z,36.90
2022-08-23T15:16:25.031Z,36.90
2022-08-23T15:18:53.432Z,36.90
2022-08-23T15:21:21.699Z,36.90
2022-08-23T15:23:49.719Z,36.80
2022-08-23T15:26:19.011Z,36.80
2022-08-23T15:28:48.372Z,36.80
2022-08-23T15:31:16.499Z,36.80
2022-08-23T15:33:44.619Z,36.80
2022-08-23T15:36:13.190Z,36.70
2022-08-23T15:38:43.684Z,36.70
2022-08-23T15:41:12.378Z,36.70
2022-08-23T15:43:40.627Z,36.70
2022-08-23T15:46:11.306Z,36.70
2022-08-23T15:48:44.406Z,36.60
2022-08-23T15:51:12.647Z,36.60
2022-08-23T15:53:41.037Z,36.60
2022-08-23T15:56:09.982Z,36.50
2022-08-23T15:58:38.019Z,36.50
2022-08-23T16:01:07.605Z,36.50
2022-08-23T16:03:37.961Z,36.40
2022-08-23T16:06:06.834Z,36.30
2022-08-23T16:08:36.444Z,36.30
2022-08-23T16:11:11.513Z,36.30
2022-08-23T16:13:43.191Z,36.30
2022-08-23T16:16:16.632Z,36.20
2022-08-23T16:18:46.209Z,36.20
2022-08-23T16:21:14.619Z,36.20
2022-08-23T16:23:44.139Z,36.20
2022-08-23T16:26:15.115Z,36.10
2022-08-23T16:28:46.772Z,36.00
2022-08-23T16:31:15.039Z,36.00
2022-08-23T16:33:43.843Z,36.00
2022-08-23T16:36:13.455Z,36.00
2022-08-23T16:38:44.634Z,36.00
2022-08-23T16:41:15.200Z,35.90
2022-08-23T16:43:43.441Z,35.90
2022-08-23T16:46:16.018Z,35.80
2022-08-23T16:48:44.347Z,35.80
2022-08-23T16:51:14.020Z,35.70
2022-08-23T16:53:55.608Z,35.70
2022-08-23T16:56:37.721Z,35.70
2022-08-23T16:59:10.816Z,35.50
2022-08-23T17:01:46.187Z,35.50
2022-08-23T17:04:14.466Z,35.60
2022-08-23T17:06:47.360Z,35.50
2022-08-23T17:09:15.800Z,35.50
2022-08-23T17:11:49.206Z,35.50
2022-08-23T17:14:19.546Z,35.50
2022-08-23T17:16:49.098Z,35.40
2022-08-23T17:19:19.112Z,35.30
2022-08-23T17:21:49.617Z,35.30
2022-08-23T17:24:18.131Z,35.20
2022-08-23T17:26:46.311Z,35.20
2022-08-23T17:29:14.378Z,35.20
2022-08-23T17:31:43.698Z,35.10
2022-08-23T17:34:11.882Z,35.10
2022-08-23T17:36:42.018Z,35.10
2022-08-23T17:39:16.490Z,35.00
2022-08-23T17:41:45.502Z,35.00
2022-08-23T17:44:14.178Z,34.90
2022-08-23T17:46:43.800Z,34.90
2022-08-23T17:49:12.000Z,34.80
2022-08-23T17:51:41.117Z,34.70
2022-08-23T17:54:10.224Z,34.70
2022-08-23T17:56:40.521Z,34.60
2022-08-23T17:59:10.039Z,34.60
2022-08-23T18:01:38.263Z,34.50
2022-08-23T18:04:06.696Z,33.90
2022-08-23T18:06:35.875Z,33.50
2022-08-23T18:09:04.009Z,33.20
2022-08-23T18:11:32.076Z,33.10
2022-08-23T18:14:01.573Z,32.90
2022-08-23T18:16:35.027Z,32.90
2022-08-23T18:19:03.880Z,32.80
2022-08-23T18:21:31.877Z,32.70
2022-08-23T18:24:00.056Z,32.70
2022-08-23T18:26:45.671Z,32.80
2022-08-23T18:29:16.009Z,32.80
2022-08-23T18:31:44.534Z,32.80
2022-08-23T18:34:12.584Z,32.70
2022-08-23T18:36:40.435Z,32.70
2022-08-23T18:39:08.635Z,32.70
2022-08-23T18:41:36.513Z,32.70
2022-08-23T18:44:05.642Z,32.60
2022-08-23T18:46:35.228Z,32.50
2022-08-23T18:49:03.084Z,32.40
2022-08-23T18:51:31.125Z,32.40
2022-08-23T18:53:59.337Z,32.30
2022-08-23T18:56:27.127Z,32.20
2022-08-23T18:58:54.821Z,32.20
2022-08-23T19:01:26.490Z,32.20
2022-08-23T19:03:56.291Z,32.20
2022-08-23T19:06:24.540Z,32.20
2022-08-23T19:08:52.961Z,32.20
2022-08-23T19:11:21.147Z,32.20
2022-08-23T19:13:51.205Z,32.10
2022-08-23T19:16:19.661Z,32.10
2022-08-23T19:18:49.973Z,32.00
2022-08-23T19:21:21.420Z,32.00
2022-08-23T19:23:49.611Z,32.00
2022-08-23T19:26:18.099Z,32.00
2022-08-23T19:28:45.943Z,32.00
2022-08-23T19:31:14.381Z,32.00
2022-08-23T19:33:42.594Z,32.00
2022-08-23T19:36:29.385Z,31.90
2022-08-23T19:38:59.774Z,31.90
2022-08-23T19:41:27.462Z,31.90
2022-08-23T19:43:55.439Z,31.90
2022-08-23T19:46:23.608Z,31.90
2022-08-23T19:48:51.344Z,31.90
2022-08-23T19:51:19.666Z,31.90
2022-08-23T19:54:04.053Z,31.80
2022-08-23T19:56:35.876Z,31.80
2022-08-23T19:59:05.200Z,31.80
2022-08-23T20:01:32.976Z,31.80
2022-08-23T20:04:01.335Z,31.80
2022-08-23T20:06:29.500Z,31.70
2022-08-23T20:08:57.451Z,31.80
2022-08-23T20:11:25.438Z,31.70
2022-08-23T20:13:56.658Z,31.80
2022-08-23T20:16:26.798Z,31.70
2022-08-23T20:18:55.278Z,31.80
2022-08-23T20:21:24.096Z,31.70
2022-08-23T20:24:04.262Z,31.70
2022-08-23T20:26:35.291Z,31.60
2022-08-23T20:29:05.631Z,31.60
2022-08-23T20:31:35.881Z,31.60
2022-08-23T20:34:04.120Z,31.70
2022-08-23T20:36:33.340Z,31.60
2022-08-23T20:39:01.872Z,31.60
2022-08-23T20:41:31.364Z,31.50
2022-08-23T20:43:59.276Z,31.60
2022-08-23T20:46:28.808Z,31.60
2022-08-23T20:48:57.883Z,31.60
2022-08-23T20:51:25.757Z,31.60
2022-08-23T20:53:53.738Z,31.60
2022-08-23T20:56:24.674Z,31.60
2022-08-23T20:58:52.571Z,31.50
2022-08-23T21:01:20.310Z,31.50
2022-08-23T21:03:49.584Z,31.50
2022-08-23T21:06:20.082Z,31.50
2022-08-23T21:08:49.432Z,31.30
2022-08-23T21:11:17.197Z,31.20
2022-08-23T21:13:45.297Z,31.00
2022-08-23T21:16:13.332Z,31.00
2022-08-23T21:18:41.421Z,30.90
2022-08-23T21:21:10.713Z,30.80
2022-08-23T21:23:39.061Z,30.90
2022-08-23T21:26:07.434Z,30.80
2022-08-23T21:28:36.161Z,30.70
2022-08-23T21:31:07.615Z,30.80
2022-08-23T21:33:39.834Z,30.80
2022-08-23T21:36:09.900Z,30.90
2022-08-23T21:38:37.824Z,30.80
2022-08-23T21:41:08.279Z,30.80
2022-08-23T21:43:37.268Z,30.90
2022-08-23T21:46:05.397Z,30.80
2022-08-23T21:48:33.451Z,30.80
2022-08-23T21:51:01.448Z,30.80
2022-08-23T21:53:31.284Z,30.70
2022-08-23T21:55:59.195Z,30.70
2022-08-23T21:58:27.039Z,30.70
2022-08-23T22:00:54.801Z,30.80
2022-08-23T22:03:22.783Z,30.90
2022-08-23T22:05:50.655Z,30.90
2022-08-23T22:08:18.370Z,30.90
2022-08-23T22:10:57.066Z,30.90
2022-08-23T22:13:26.877Z,30.80
2022-08-23T22:15:54.877Z,30.80
2022-08-23T22:18:22.984Z,30.80
2022-08-23T22:20:50.945Z,30.80
2022-08-23T22:23:18.869Z,30.70
2022-08-23T22:25:48.398Z,30.70
2022-08-23T22:28:16.251Z,30.70
2022-08-23T22:30:44.359Z,30.80
2022-08-23T22:33:13.089Z,30.80
2022-08-23T22:35:40.993Z,30.60
2022-08-23T22:38:14.070Z,30.50
2022-08-23T22:40:49.385Z,30.60
2022-08-23T22:43:17.405Z,30.50
2022-08-23T22:45:52.414Z,30.50
2022-08-23T22:48:20.587Z,30.60
2022-08-23T22:50:48.679Z,30.70
2022-08-23T22:53:16.763Z,30.70
2022-08-23T22:55:50.841Z,30.70
2022-08-23T22:58:18.887Z,30.70
2022-08-23T23:00:46.616Z,30.70
2022-08-23T23:03:14.324Z,30.80
2022-08-23T23:05:42.328Z,30.70
2022-08-23T23:08:28.494Z,30.60
2022-08-23T23:10:58.216Z,30.50
2022-08-23T23:13:26.195Z,30.50
2022-08-23T23:15:54.303Z,30.70
2022-08-23T23:18:22.272Z,30.60
2022-08-23T23:20:49.369Z,30.70
2022-08-23T23:23:19.979Z,30.40
2022-08-23T23:25:48.008Z,30.40
2022-08-23T23:28:17.625Z,30.50
2022-08-23T23:30:46.122Z,30.40
2022-08-23T23:33:13.949Z,30.40
2022-08-23T23:35:41.851Z,30.30
2022-08-23T23:38:10.123Z,30.20
2022-08-23T23:40:38.127Z,30.20
2022-08-23T23:43:05.851Z,30.30
2022-08-23T23:45:38.341Z,30.40
2022-08-23T23:48:08.106Z,30.40
2022-08-23T23:50:36.993Z,30.30
2022-08-23T23:53:07.232Z,30.40
2022-08-23T23:55:35.155Z,30.40
2022-08-23T23:58:03.226Z,30.30
